createdAt,value
2022-12-31T00:03:01.014Z,3.67
2022-12-31T00:06:29.569Z,3.62
2022-12-31T00:09:37.000Z,3.73
2022-12-31T00:12:40.649Z,3.54
2022-12-31T00:15:56.624Z,3.56
2022-12-31T00:19:00.976Z,3.50
2022-12-31T00:22:06.767Z,3.56
2022-12-31T00:25:11.672Z,3.64
2022-12-31T00:28:15.294Z,3.59
2022-12-31T00:31:25.683Z,3.49
2022-12-31T00:34:31.451Z,3.59
2022-12-31T00:37:39.212Z,3.42
2022-12-31T00:40:52.890Z,3.50
2022-12-31T00:43:58.765Z,3.42
2022-12-31T00:47:02.550Z,3.52
2022-12-31T00:50:09.153Z,3.56
2022-12-31T00:53:12.305Z,3.53
2022-12-31T00:56:21.558Z,3.50
2022-12-31T00:59:25.652Z,3.46
2022-12-31T01:02:29.839Z,3.41
2022-12-31T01:05:35.094Z,3.43
2022-12-31T01:08:41.667Z,3.43
2022-12-31T01:11:45.808Z,3.42
2022-12-31T01:14:50.543Z,3.43
2022-12-31T01:17:54.387Z,3.58
2022-12-31T01:21:04.769Z,3.55
2022-12-31T01:24:10.988Z,3.63
2022-12-31T01:27:16.562Z,3.58
2022-12-31T01:30:23.280Z,3.64
2022-12-31T01:33:28.499Z,3.45
2022-12-31T01:36:34.853Z,3.40
2022-12-31T01:39:38.785Z,3.46
2022-12-31T01:42:43.998Z,3.46
2022-12-31T01:45:54.754Z,3.51
2022-12-31T01:49:27.204Z,3.50
2022-12-31T01:52:47.766Z,3.46
2022-12-31T01:56:03.204Z,3.34
2022-12-31T01:59:34.898Z,3.38
2022-12-31T02:02:40.039Z,3.65
2022-12-31T02:05:56.909Z,3.58
2022-12-31T02:09:29.780Z,3.53
2022-12-31T02:12:34.777Z,3.54
2022-12-31T02:15:57.164Z,3.43
2022-12-31T02:19:59.561Z,3.36
2022-12-31T02:23:32.923Z,3.39
2022-12-31T02:27:45.643Z,3.52
2022-12-31T02:30:55.552Z,3.46
2022-12-31T02:34:08.666Z,3.43
2022-12-31T02:37:34.054Z,3.37
2022-12-31T02:40:38.914Z,3.35
2022-12-31T02:44:02.516Z,3.43
2022-12-31T02:47:32.935Z,3.37
2022-12-31T02:50:58.218Z,3.50
2022-12-31T02:55:18.458Z,3.47
2022-12-31T02:59:00.775Z,3.47
2022-12-31T03:02:21.773Z,3.43
2022-12-31T03:05:51.468Z,3.51
2022-12-31T03:09:44.598Z,3.46
2022-12-31T03:13:29.899Z,3.71
2022-12-31T03:16:35.754Z,3.68
2022-12-31T03:20:00.754Z,3.44
2022-12-31T03:23:06.987Z,3.51
2022-12-31T03:26:13.607Z,3.47
2022-12-31T03:29:16.951Z,3.71
2022-12-31T03:32:44.604Z,3.69
2022-12-31T03:35:49.076Z,3.49
2022-12-31T03:38:56.035Z,3.52
2022-12-31T03:42:08.591Z,3.50
2022-12-31T03:46:01.748Z,3.61
2022-12-31T03:49:09.835Z,3.59
2022-12-31T03:52:17.513Z,3.60
2022-12-31T03:55:32.655Z,3.57
2022-12-31T03:58:47.602Z,3.65
2022-12-31T04:01:59.006Z,3.74
2022-12-31T04:05:25.627Z,3.66
2022-12-31T04:08:33.561Z,3.63
2022-12-31T04:11:41.929Z,3.63
2022-12-31T04:14:47.370Z,3.54
2022-12-31T04:17:51.706Z,3.65
2022-12-31T04:20:55.509Z,3.67
2022-12-31T04:24:01.903Z,3.67
2022-12-31T04:27:08.019Z,3.79
2022-12-31T04:30:16.947Z,3.71
2022-12-31T04:33:20.844Z,3.67
2022-12-31T04:36:44.730Z,3.66
2022-12-31T04:39:47.965Z,3.58
2022-12-31T04:42:51.573Z,3.55
2022-12-31T04:45:54.835Z,3.51
2022-12-31T04:48:59.498Z,3.75
2022-12-31T04:52:02.727Z,3.71
2022-12-31T04:55:06.943Z,3.62
2022-12-31T04:58:14.237Z,3.70
2022-12-31T05:01:20.228Z,3.64
2022-12-31T05:04:34.328Z,3.51
2022-12-31T05:07:58.847Z,3.53
2022-12-31T05:11:04.556Z,3.61
2022-12-31T05:14:28.690Z,3.55
2022-12-31T05:17:44.888Z,3.71
2022-12-31T05:21:22.156Z,3.58
2022-12-31T05:24:51.943Z,3.66
2022-12-31T05:27:58.964Z,3.63
2022-12-31T05:31:14.922Z,3.65
2022-12-31T05:34:45.624Z,3.64
2022-12-31T05:38:31.581Z,3.62
2022-12-31T05:41:36.276Z,3.62
2022-12-31T05:45:08.210Z,3.63
2022-12-31T05:48:30.065Z,3.68
2022-12-31T05:51:56.138Z,3.73
2022-12-31T05:55:00.180Z,3.69
2022-12-31T06:01:35.987Z,3.79
2022-12-31T06:04:42.764Z,3.80
2022-12-31T06:07:50.209Z,3.76
2022-12-31T06:11:14.361Z,3.81
2022-12-31T06:14:21.181Z,3.77
2022-12-31T06:17:27.873Z,3.77
2022-12-31T06:20:38.497Z,3.72
2022-12-31T06:24:22.120Z,3.73
2022-12-31T06:27:25.428Z,3.76
2022-12-31T06:30:28.613Z,3.73
2022-12-31T06:33:31.929Z,3.70
2022-12-31T06:36:35.626Z,3.71
2022-12-31T06:39:42.531Z,3.72
2022-12-31T06:42:46.475Z,3.82
2022-12-31T06:45:49.869Z,3.77
2022-12-31T06:48:55.631Z,3.86
2022-12-31T06:52:04.405Z,3.84
2022-12-31T06:55:27.495Z,3.86
2022-12-31T06:58:30.590Z,3.97
2022-12-31T07:01:46.080Z,3.99
2022-12-31T07:05:30.716Z,4.10
2022-12-31T07:08:54.521Z,3.99
2022-12-31T07:12:44.914Z,4.00
2022-12-31T07:16:02.669Z,4.04
2022-12-31T07:19:32.214Z,4.25
2022-12-31T07:23:30.451Z,4.09
2022-12-31T07:27:54.624Z,4.10
2022-12-31T07:31:49.437Z,4.16
2022-12-31T07:35:00.366Z,4.40
2022-12-31T07:38:25.245Z,4.27
2022-12-31T07:42:01.309Z,4.40
2022-12-31T07:45:21.314Z,4.41
2022-12-31T07:48:30.410Z,4.47
2022-12-31T07:51:38.146Z,4.55
2022-12-31T07:54:53.856Z,4.60
2022-12-31T07:58:47.345Z,4.65
2022-12-31T08:02:03.689Z,4.66
2022-12-31T08:05:27.671Z,4.67
2022-12-31T08:09:11.827Z,4.79
2022-12-31T08:13:43.022Z,4.90
2022-12-31T08:39:02.592Z,5.32
2022-12-31T08:48:30.034Z,4.87
2022-12-31T08:52:09.205Z,5.08
2022-12-31T08:57:27.926Z,5.62
2022-12-31T09:36:38.002Z,6.54
2022-12-31T09:40:59.618Z,6.33
2022-12-31T09:50:11.605Z,6.85
2022-12-31T09:54:15.356Z,6.37
2022-12-31T09:58:46.944Z,6.95
2022-12-31T10:02:25.682Z,6.52
2022-12-31T10:06:03.729Z,6.75
2022-12-31T10:19:27.917Z,7.05
2022-12-31T10:22:51.554Z,7.02
2022-12-31T10:26:42.274Z,6.06
2022-12-31T10:29:59.737Z,6.66
2022-12-31T10:33:21.721Z,6.88
2022-12-31T10:37:26.284Z,7.23
2022-12-31T10:41:05.888Z,6.89
2022-12-31T10:45:05.249Z,6.64
2022-12-31T10:49:39.846Z,7.37
2022-12-31T10:54:13.591Z,7.17
2022-12-31T10:58:50.646Z,7.35
2022-12-31T11:02:34.514Z,6.42
2022-12-31T11:06:13.701Z,6.72
2022-12-31T11:10:14.415Z,6.46
2022-12-31T11:14:11.355Z,6.90
2022-12-31T11:17:38.027Z,6.19
2022-12-31T11:21:51.890Z,6.02
2022-12-31T11:25:08.642Z,6.83
2022-12-31T11:28:34.409Z,6.39
2022-12-31T11:32:16.141Z,6.49
2022-12-31T11:35:45.650Z,6.57
2022-12-31T11:39:32.189Z,6.60
2022-12-31T11:43:15.171Z,6.29
2022-12-31T11:47:04.568Z,6.64
2022-12-31T11:50:13.476Z,6.73
2022-12-31T11:53:16.900Z,6.91
2022-12-31T11:56:34.201Z,6.79
2022-12-31T12:00:01.689Z,6.89
2022-12-31T12:03:18.935Z,6.89
2022-12-31T12:06:46.405Z,7.07
2022-12-31T12:09:51.754Z,7.21
2022-12-31T12:13:03.707Z,7.03
2022-12-31T12:16:09.422Z,6.89
2022-12-31T12:19:19.365Z,7.11
2022-12-31T12:22:36.827Z,7.45
2022-12-31T12:26:52.319Z,7.24
2022-12-31T12:30:24.556Z,7.12
2022-12-31T12:34:00.475Z,7.24
2022-12-31T12:37:34.724Z,6.97
2022-12-31T12:41:10.580Z,7.21
2022-12-31T12:44:19.713Z,7.46
2022-12-31T12:47:28.946Z,7.66
2022-12-31T12:50:42.425Z,7.52
2022-12-31T12:54:46.228Z,7.78
2022-12-31T13:04:23.797Z,7.59
2022-12-31T13:20:22.193Z,7.69
2022-12-31T13:25:03.588Z,7.81
2022-12-31T13:28:49.196Z,7.84
2022-12-31T13:32:40.210Z,7.94
2022-12-31T13:35:54.129Z,7.98
2022-12-31T13:39:02.358Z,7.86
2022-12-31T13:42:27.597Z,8.13
2022-12-31T13:45:38.889Z,8.08
2022-12-31T13:48:53.584Z,7.79
2022-12-31T13:52:27.410Z,7.98
2022-12-31T13:55:36.749Z,7.87
2022-12-31T13:58:57.955Z,7.57
2022-12-31T14:02:35.546Z,7.69
2022-12-31T14:05:52.728Z,7.45
2022-12-31T14:08:57.848Z,7.41
2022-12-31T14:12:31.133Z,7.03
2022-12-31T14:15:52.757Z,7.15
2022-12-31T14:19:07.398Z,7.19
2022-12-31T14:22:18.949Z,7.18
2022-12-31T14:26:23.852Z,7.38
2022-12-31T14:29:50.353Z,7.41
2022-12-31T14:33:43.671Z,7.40
2022-12-31T14:37:17.215Z,7.25
2022-12-31T14:41:23.962Z,7.12
2022-12-31T14:44:54.326Z,7.04
2022-12-31T14:48:09.595Z,6.99
2022-12-31T14:51:15.064Z,6.79
2022-12-31T14:55:24.487Z,7.07
2022-12-31T14:58:54.071Z,6.70
2022-12-31T15:02:33.769Z,6.94
2022-12-31T15:05:53.251Z,6.72
2022-12-31T15:09:17.911Z,6.67
2022-12-31T15:12:29.028Z,6.68
2022-12-31T15:15:43.052Z,6.52
2022-12-31T15:19:11.999Z,6.62
2022-12-31T15:22:37.652Z,6.58
2022-12-31T15:25:48.385Z,6.39
2022-12-31T15:29:51.294Z,6.47
2022-12-31T15:33:27.211Z,6.42
2022-12-31T15:36:34.611Z,6.38
2022-12-31T15:39:44.566Z,6.37
2022-12-31T15:42:58.341Z,6.44
2022-12-31T15:46:06.079Z,6.53
2022-12-31T15:49:23.854Z,6.84
2022-12-31T15:53:02.464Z,6.61
2022-12-31T15:56:49.011Z,6.33
2022-12-31T16:00:24.983Z,6.38
2022-12-31T16:03:36.734Z,6.32
2022-12-31T16:06:46.074Z,6.33
2022-12-31T16:10:50.372Z,6.34
2022-12-31T16:14:00.732Z,6.35
2022-12-31T16:17:38.633Z,6.45
2022-12-31T16:20:50.772Z,6.36
2022-12-31T16:24:35.219Z,6.28
2022-12-31T16:28:01.746Z,6.29
2022-12-31T16:31:29.199Z,6.26
2022-12-31T16:34:38.324Z,6.23
2022-12-31T16:37:42.751Z,6.18
2022-12-31T16:41:03.881Z,6.13
2022-12-31T16:44:24.873Z,6.23
2022-12-31T16:47:40.662Z,6.13
2022-12-31T16:50:49.687Z,6.00
2022-12-31T16:53:53.109Z,5.99
2022-12-31T16:56:59.003Z,5.97
2022-12-31T17:00:07.289Z,5.93
2022-12-31T17:03:16.785Z,5.89
2022-12-31T17:06:21.263Z,5.78
2022-12-31T17:09:37.284Z,5.73
2022-12-31T17:13:25.546Z,5.62
2022-12-31T17:16:09.015Z,5.54
2022-12-31T17:19:42.042Z,5.43
2022-12-31T17:22:46.020Z,5.43
2022-12-31T17:25:49.427Z,5.26
2022-12-31T17:28:54.445Z,5.25
2022-12-31T17:32:07.670Z,5.14
2022-12-31T17:35:43.856Z,5.08
2022-12-31T17:38:47.841Z,5.18
2022-12-31T17:41:58.508Z,5.10
2022-12-31T17:45:16.323Z,5.09
2022-12-31T17:48:23.401Z,5.08
2022-12-31T17:51:29.568Z,5.13
2022-12-31T17:54:32.920Z,5.10
2022-12-31T17:57:36.436Z,5.12
2022-12-31T18:00:39.886Z,5.16
2022-12-31T18:03:44.457Z,5.18
2022-12-31T18:06:47.175Z,5.14
2022-12-31T18:09:53.793Z,5.09
2022-12-31T18:12:59.228Z,5.12
2022-12-31T18:16:02.441Z,5.03
2022-12-31T18:19:23.531Z,4.91
2022-12-31T18:22:38.063Z,4.79
2022-12-31T18:28:43.794Z,4.53
2022-12-31T18:31:49.489Z,4.53
2022-12-31T18:34:53.237Z,4.45
2022-12-31T18:38:00.296Z,4.37
2022-12-31T18:41:19.779Z,4.30
2022-12-31T18:44:27.531Z,4.15
2022-12-31T18:47:37.299Z,4.16
2022-12-31T18:50:44.402Z,4.12
2022-12-31T18:53:48.515Z,4.10
2022-12-31T18:56:57.072Z,4.05
2022-12-31T19:00:00.788Z,3.97
2022-12-31T19:03:06.367Z,3.92
2022-12-31T19:06:10.333Z,3.91
2022-12-31T19:09:43.504Z,3.90
2022-12-31T19:12:37.696Z,3.90
2022-12-31T19:15:50.901Z,3.82
2022-12-31T19:18:54.846Z,3.80
2022-12-31T19:21:58.035Z,3.72
2022-12-31T19:25:02.565Z,3.71
2022-12-31T19:28:13.368Z,3.65
2022-12-31T19:31:18.993Z,3.62
2022-12-31T19:34:26.007Z,3.61
2022-12-31T19:37:30.560Z,3.57
2022-12-31T19:40:38.054Z,3.56
2022-12-31T19:43:43.793Z,3.46
2022-12-31T19:46:47.191Z,3.36
2022-12-31T19:49:50.974Z,3.38
2022-12-31T19:52:57.510Z,3.29
2022-12-31T19:56:03.023Z,3.30
2022-12-31T19:59:07.847Z,3.29
2022-12-31T20:02:31.200Z,3.24
2022-12-31T20:05:38.801Z,3.26
2022-12-31T20:08:44.714Z,3.15
2022-12-31T20:12:07.891Z,3.06
2022-12-31T20:15:11.601Z,3.02
2022-12-31T20:18:20.971Z,3.11
2022-12-31T20:21:28.942Z,3.07
2022-12-31T20:24:34.285Z,3.03
2022-12-31T20:27:39.743Z,3.15
2022-12-31T20:30:45.989Z,3.06
2022-12-31T20:33:49.999Z,3.06
2022-12-31T20:36:56.227Z,3.00
2022-12-31T20:40:00.851Z,3.00
2022-12-31T20:43:06.888Z,2.96
2022-12-31T20:50:10.178Z,2.91
2022-12-31T20:53:11.593Z,2.91
2022-12-31T20:56:16.535Z,2.90
2022-12-31T20:59:26.319Z,2.92
2022-12-31T21:02:42.162Z,2.87
2022-12-31T21:05:53.473Z,2.84
2022-12-31T21:08:59.495Z,2.80
2022-12-31T21:12:28.799Z,2.82
2022-12-31T21:15:32.267Z,2.75
2022-12-31T21:18:35.341Z,2.71
2022-12-31T21:21:50.990Z,2.68
2022-12-31T21:24:54.127Z,2.68
2022-12-31T21:27:58.004Z,2.71
2022-12-31T21:31:06.395Z,2.68
2022-12-31T21:34:15.857Z,2.72
2022-12-31T21:37:19.723Z,2.66
2022-12-31T21:40:27.269Z,2.61
2022-12-31T21:43:35.950Z,2.59
2022-12-31T21:46:54.614Z,2.54
2022-12-31T21:50:16.063Z,2.57
2022-12-31T21:53:36.621Z,2.60
2022-12-31T21:56:44.776Z,2.61
2022-12-31T22:00:40.435Z,2.71
2022-12-31T22:03:43.414Z,2.69
2022-12-31T22:06:56.879Z,2.65
2022-12-31T22:10:03.391Z,2.61
2022-12-31T22:13:10.637Z,2.54
2022-12-31T22:16:20.431Z,2.49
2022-12-31T22:19:23.379Z,2.51
2022-12-31T22:22:26.823Z,2.47
2022-12-31T22:25:39.626Z,2.41
2022-12-31T22:28:44.361Z,2.39
2022-12-31T22:31:49.969Z,2.34
2022-12-31T22:34:53.088Z,2.39
2022-12-31T22:38:03.279Z,2.36
2022-12-31T22:41:21.445Z,2.39
2022-12-31T22:44:30.799Z,2.41
2022-12-31T22:47:33.824Z,2.42
2022-12-31T22:50:38.269Z,2.46
2022-12-31T22:53:43.684Z,2.52
2022-12-31T22:56:48.927Z,2.51
2022-12-31T23:00:02.554Z,2.45
2022-12-31T23:03:12.409Z,2.36
2022-12-31T23:06:43.953Z,2.29
2022-12-31T23:10:06.249Z,2.29
2022-12-31T23:13:28.726Z,2.27
2022-12-31T23:16:50.318Z,2.26
2022-12-31T23:20:15.733Z,2.22
2022-12-31T23:23:21.528Z,2.12
2022-12-31T23:26:24.598Z,2.06
2022-12-31T23:29:30.170Z,2.11
2022-12-31T23:32:33.823Z,2.00
2022-12-31T23:35:38.069Z,2.01
2022-12-31T23:38:53.936Z,2.02
2022-12-31T23:42:00.933Z,2.03
2022-12-31T23:45:04.530Z,2.05
2022-12-31T23:48:07.885Z,1.99
2022-12-31T23:51:11.506Z,1.91
2022-12-31T23:54:18.401Z,1.92
2022-12-31T23:57:22.980Z,1.98
